createdAt,value
2023-02-28T00:01:31.808Z,98.40
2023-02-28T00:03:59.882Z,99.18
2023-02-28T00:06:27.407Z,99.89
2023-02-28T00:08:55.099Z,99.24
2023-02-28T00:11:22.838Z,99.62
2023-02-28T00:13:50.522Z,99.83
2023-02-28T00:16:21.628Z,99.56
2023-02-28T00:18:49.754Z,100.00
2023-02-28T00:21:18.454Z,99.76
2023-02-28T00:23:46.556Z,99.64
2023-02-28T00:26:14.188Z,99.59
2023-02-28T00:28:45.702Z,100.00
2023-02-28T00:31:13.092Z,100.00
2023-02-28T00:33:40.719Z,100.00
2023-02-28T00:36:11.336Z,100.00
2023-02-28T00:38:40.355Z,100.00
2023-02-28T00:41:09.096Z,100.00
2023-02-28T00:43:38.587Z,100.00
2023-02-28T00:46:06.560Z,100.00
2023-02-28T00:48:34.522Z,100.00
2023-02-28T00:51:02.184Z,100.00
2023-02-28T00:53:30.366Z,100.00
2023-02-28T00:55:59.602Z,100.00
2023-02-28T00:58:27.868Z,100.00
2023-02-28T01:00:56.005Z,100.00
2023-02-28T01:03:24.922Z,100.00
2023-02-28T01:05:54.130Z,99.98
2023-02-28T01:08:21.837Z,99.55
2023-02-28T01:10:49.565Z,98.87
2023-02-28T01:13:17.354Z,100.00
2023-02-28T01:15:52.818Z,99.78
2023-02-28T01:18:21.918Z,98.86
2023-02-28T01:20:49.865Z,98.03
2023-02-28T01:23:17.781Z,98.57
2023-02-28T01:25:45.084Z,99.32
2023-02-28T01:28:12.826Z,99.32
2023-02-28T01:30:40.139Z,100.00
2023-02-28T01:33:07.723Z,100.00
2023-02-28T01:35:36.561Z,100.00
2023-02-28T01:38:20.397Z,99.60
2023-02-28T01:40:48.788Z,99.37
2023-02-28T01:43:31.916Z,99.58
2023-02-28T01:46:00.332Z,99.25
2023-02-28T01:48:36.209Z,98.47
2023-02-28T01:51:09.872Z,98.93
2023-02-28T01:53:54.069Z,97.92
2023-02-28T01:56:27.588Z,98.35
2023-02-28T01:58:56.171Z,99.31
2023-02-28T02:01:27.162Z,99.48
2023-02-28T02:03:58.505Z,98.84
2023-02-28T02:06:31.127Z,98.55
2023-02-28T02:08:58.708Z,99.17
2023-02-28T02:11:27.350Z,99.82
2023-02-28T02:14:13.695Z,100.00
2023-02-28T02:17:16.191Z,100.00
2023-02-28T02:20:04.259Z,100.00
2023-02-28T02:23:02.675Z,100.00
2023-02-28T02:25:42.978Z,100.00
2023-02-28T02:28:46.105Z,100.00
2023-02-28T02:31:31.639Z,100.00
2023-02-28T02:34:34.601Z,100.00
2023-02-28T02:37:32.303Z,100.00
2023-02-28T02:40:09.528Z,100.00
2023-02-28T02:42:49.078Z,100.00
2023-02-28T02:45:25.104Z,100.00
2023-02-28T02:47:58.472Z,100.00
2023-02-28T02:50:31.689Z,98.06
2023-02-28T02:53:02.490Z,96.47
2023-02-28T02:55:35.529Z,95.61
2023-02-28T02:58:07.748Z,95.38
2023-02-28T03:00:43.825Z,94.74
2023-02-28T03:03:13.431Z,95.66
2023-02-28T03:05:47.999Z,95.40
2023-02-28T03:08:15.750Z,95.08
2023-02-28T03:10:47.176Z,94.69
2023-02-28T03:13:26.990Z,95.11
2023-02-28T03:16:14.142Z,94.25
2023-02-28T03:19:06.710Z,94.80
2023-02-28T03:21:44.620Z,94.28
2023-02-28T03:24:50.658Z,94.17
2023-02-28T03:27:28.030Z,95.12
2023-02-28T03:30:07.403Z,94.83
2023-02-28T03:32:42.025Z,95.09
2023-02-28T03:35:15.457Z,94.69
2023-02-28T03:37:46.109Z,94.87
2023-02-28T03:40:22.695Z,94.87
2023-02-28T03:42:55.454Z,94.89
2023-02-28T03:45:27.816Z,95.34
2023-02-28T03:47:58.067Z,95.02
2023-02-28T03:50:28.347Z,95.35
2023-02-28T03:53:18.591Z,95.71
2023-02-28T03:55:55.226Z,95.16
2023-02-28T03:58:26.321Z,96.01
2023-02-28T04:01:09.064Z,95.89
2023-02-28T04:03:38.328Z,95.60
2023-02-28T04:06:09.460Z,97.19
2023-02-28T04:08:36.788Z,96.37
2023-02-28T04:11:38.558Z,96.21
2023-02-28T04:14:07.476Z,96.89
2023-02-28T04:16:39.438Z,96.57
2023-02-28T04:19:08.700Z,97.33
2023-02-28T04:21:45.342Z,97.14
2023-02-28T04:24:15.807Z,97.00
2023-02-28T04:26:46.871Z,96.83
2023-02-28T04:29:21.329Z,97.65
2023-02-28T04:31:49.032Z,98.75
2023-02-28T04:34:17.526Z,99.74
2023-02-28T04:36:46.937Z,99.91
2023-02-28T04:39:14.557Z,99.32
2023-02-28T04:41:42.207Z,98.48
2023-02-28T04:44:09.426Z,98.07
2023-02-28T04:46:37.329Z,98.96
2023-02-28T04:49:04.624Z,99.21
2023-02-28T04:51:32.234Z,99.28
2023-02-28T04:53:59.868Z,100.00
2023-02-28T04:56:27.380Z,99.90
2023-02-28T04:58:55.719Z,99.55
2023-02-28T05:01:23.218Z,99.36
2023-02-28T05:03:51.657Z,98.77
2023-02-28T05:06:21.346Z,99.75
2023-02-28T05:08:48.844Z,99.02
2023-02-28T05:11:35.909Z,99.26
2023-02-28T05:14:11.406Z,99.46
2023-02-28T05:16:39.116Z,100.00
2023-02-28T05:19:06.461Z,100.00
2023-02-28T05:21:38.740Z,100.00
2023-02-28T05:24:07.505Z,100.00
2023-02-28T05:26:39.685Z,100.00
2023-02-28T05:29:06.851Z,100.00
2023-02-28T05:31:34.949Z,100.00
2023-02-28T05:34:02.613Z,100.00
2023-02-28T05:36:30.276Z,100.00
2023-02-28T05:38:57.598Z,99.34
2023-02-28T05:41:25.215Z,98.39
2023-02-28T05:43:52.511Z,98.30
2023-02-28T05:46:20.150Z,98.02
2023-02-28T05:48:49.255Z,98.33
2023-02-28T05:51:17.809Z,97.54
2023-02-28T05:53:45.334Z,97.91
2023-02-28T05:56:13.040Z,96.95
2023-02-28T05:58:40.275Z,96.72
2023-02-28T06:01:41.721Z,96.89
2023-02-28T06:04:22.202Z,96.01
2023-02-28T06:06:58.606Z,95.71
2023-02-28T06:09:26.114Z,91.46
2023-02-28T06:11:53.690Z,85.91
2023-02-28T06:14:21.836Z,85.51
2023-02-28T06:16:49.444Z,80.28
2023-02-28T06:19:17.075Z,75.64
2023-02-28T06:21:44.806Z,72.61
2023-02-28T06:24:12.159Z,70.64
2023-02-28T06:26:39.778Z,65.81
2023-02-28T06:29:07.054Z,55.63
2023-02-28T06:31:34.746Z,50.23
2023-02-28T06:34:02.220Z,44.84
2023-02-28T06:36:29.987Z,42.57
2023-02-28T06:38:57.519Z,40.94
2023-02-28T06:41:27.268Z,39.68
2023-02-28T06:43:54.931Z,38.29
2023-02-28T06:46:23.240Z,36.19
2023-02-28T06:48:50.844Z,37.14
2023-02-28T06:51:23.215Z,34.66
2023-02-28T06:53:51.099Z,34.35
2023-02-28T06:56:21.308Z,33.43
2023-02-28T06:58:49.989Z,31.78
2023-02-28T07:01:18.378Z,31.04
2023-02-28T07:03:46.482Z,31.74
2023-02-28T07:06:13.983Z,30.06
2023-02-28T07:08:42.161Z,29.31
2023-02-28T07:11:09.942Z,28.20
2023-02-28T07:13:37.528Z,27.13
2023-02-28T07:16:08.838Z,27.86
2023-02-28T07:18:36.789Z,27.71
2023-02-28T07:21:06.499Z,27.74
2023-02-28T07:23:33.989Z,27.12
2023-02-28T07:26:01.557Z,26.65
2023-02-28T07:28:29.192Z,27.25
2023-02-28T07:30:57.021Z,27.86
2023-02-28T07:33:25.145Z,27.49
2023-02-28T07:35:52.751Z,26.96
2023-02-28T07:38:20.061Z,26.24
2023-02-28T07:40:47.632Z,26.51
2023-02-28T07:43:14.867Z,26.37
2023-02-28T07:45:42.637Z,25.46
2023-02-28T07:48:11.181Z,26.30
2023-02-28T07:50:39.015Z,28.31
2023-02-28T07:53:06.354Z,26.83
2023-02-28T07:55:33.989Z,26.25
2023-02-28T07:58:01.432Z,26.13
2023-02-28T08:00:30.173Z,26.41
2023-02-28T08:02:57.445Z,25.94
2023-02-28T08:05:25.066Z,25.67
2023-02-28T08:07:52.388Z,25.09
2023-02-28T08:10:20.059Z,27.13
2023-02-28T08:12:47.277Z,25.93
2023-02-28T08:15:14.862Z,25.15
2023-02-28T08:17:42.086Z,25.03
2023-02-28T08:20:11.433Z,24.49
2023-02-28T08:22:38.660Z,24.43
2023-02-28T08:25:08.203Z,23.87
2023-02-28T08:27:36.445Z,22.93
2023-02-28T08:30:04.811Z,24.55
2023-02-28T08:32:34.309Z,24.27
2023-02-28T08:35:02.910Z,26.26
2023-02-28T08:37:30.263Z,24.09
2023-02-28T08:39:57.948Z,24.06
2023-02-28T08:42:25.543Z,25.29
2023-02-28T08:44:53.108Z,23.19
2023-02-28T08:47:20.416Z,24.01
2023-02-28T08:49:47.955Z,23.70
2023-02-28T08:52:15.272Z,23.74
2023-02-28T08:54:42.812Z,25.51
2023-02-28T08:57:10.049Z,25.33
2023-02-28T08:59:37.575Z,24.90
2023-02-28T09:02:04.922Z,24.14
2023-02-28T09:04:32.401Z,25.16
2023-02-28T09:06:59.735Z,25.06
2023-02-28T09:09:27.308Z,24.72
2023-02-28T09:11:57.487Z,24.79
2023-02-28T09:14:25.097Z,24.24
2023-02-28T09:16:52.445Z,23.67
2023-02-28T09:19:20.058Z,25.98
2023-02-28T09:21:47.477Z,25.52
2023-02-28T09:24:16.256Z,25.47
2023-02-28T09:26:56.388Z,24.68
2023-02-28T09:29:32.636Z,24.93
2023-02-28T09:32:00.473Z,24.92
2023-02-28T09:34:31.947Z,25.27
2023-02-28T09:36:59.342Z,25.23
2023-02-28T09:39:27.972Z,24.14
2023-02-28T09:41:56.947Z,25.04
2023-02-28T09:44:39.827Z,24.40
2023-02-28T09:47:26.465Z,24.10
2023-02-28T09:49:57.565Z,24.26
2023-02-28T09:52:31.431Z,24.39
2023-02-28T09:55:21.090Z,24.68
2023-02-28T09:57:48.528Z,25.59
2023-02-28T10:00:22.247Z,25.52
2023-02-28T10:02:52.066Z,25.27
2023-02-28T10:05:24.053Z,25.46
2023-02-28T10:08:26.078Z,27.03
2023-02-28T10:10:59.616Z,26.29
2023-02-28T10:13:37.527Z,26.22
2023-02-28T10:16:05.448Z,26.19
2023-02-28T10:18:47.151Z,27.06
2023-02-28T10:21:19.370Z,25.41
2023-02-28T10:23:48.969Z,27.15
2023-02-28T10:26:18.400Z,26.10
2023-02-28T10:28:46.462Z,26.45
2023-02-28T10:31:19.195Z,26.64
2023-02-28T10:33:47.178Z,27.11
2023-02-28T10:36:20.706Z,26.22
2023-02-28T10:38:51.470Z,26.15
2023-02-28T10:41:31.180Z,26.58
2023-02-28T10:44:18.995Z,28.98
2023-02-28T10:46:46.911Z,26.73
2023-02-28T10:49:30.415Z,27.55
2023-02-28T10:52:00.772Z,28.44
2023-02-28T10:54:32.553Z,27.95
2023-02-28T10:57:10.309Z,29.08
2023-02-28T10:59:37.650Z,28.28
2023-02-28T11:02:39.368Z,29.22
2023-02-28T11:05:27.523Z,28.96
2023-02-28T11:07:58.137Z,29.94
2023-02-28T11:10:30.028Z,29.29
2023-02-28T11:13:00.546Z,29.88
2023-02-28T11:15:32.018Z,29.17
2023-02-28T11:18:28.076Z,28.33
2023-02-28T11:20:59.316Z,29.92
2023-02-28T11:23:29.458Z,33.23
2023-02-28T11:26:01.381Z,33.10
2023-02-28T11:28:28.944Z,34.35
2023-02-28T11:31:20.617Z,36.04
2023-02-28T11:33:56.854Z,37.40
2023-02-28T11:36:28.081Z,40.08
2023-02-28T11:39:02.680Z,41.25
2023-02-28T11:41:34.567Z,41.44
2023-02-28T11:44:28.586Z,42.19
2023-02-28T11:47:01.978Z,42.76
2023-02-28T11:49:44.772Z,43.03
2023-02-28T11:52:14.793Z,45.34
2023-02-28T11:55:08.938Z,45.88
2023-02-28T11:57:52.533Z,45.62
2023-02-28T12:00:38.258Z,44.71
2023-02-28T12:03:26.821Z,45.26
2023-02-28T12:05:57.499Z,47.15
2023-02-28T12:08:46.737Z,46.34
2023-02-28T12:11:54.884Z,48.60
2023-02-28T12:14:47.186Z,48.68
2023-02-28T12:17:53.741Z,47.88
2023-02-28T12:20:32.956Z,46.78
2023-02-28T12:23:32.897Z,47.94
2023-02-28T12:26:21.263Z,47.06
2023-02-28T12:29:02.919Z,46.34
2023-02-28T12:31:39.417Z,48.56
2023-02-28T12:34:13.136Z,48.73
2023-02-28T12:36:45.380Z,48.69
2023-02-28T12:39:49.531Z,48.38
2023-02-28T12:42:29.535Z,50.75
2023-02-28T12:45:11.339Z,48.52
2023-02-28T12:47:42.491Z,50.08
2023-02-28T12:50:12.776Z,49.72
2023-02-28T12:53:00.692Z,49.77
2023-02-28T12:55:53.738Z,50.29
2023-02-28T12:58:42.624Z,50.23
2023-02-28T13:01:19.252Z,49.60
2023-02-28T13:03:55.304Z,50.35
2023-02-28T13:06:49.199Z,49.91
2023-02-28T13:09:17.821Z,50.27
2023-02-28T13:12:15.210Z,49.71
2023-02-28T13:14:42.679Z,48.51
2023-02-28T13:17:10.111Z,49.13
2023-02-28T13:19:41.846Z,49.56
2023-02-28T13:22:38.911Z,50.12
2023-02-28T13:25:24.411Z,50.26
2023-02-28T13:28:04.871Z,51.25
2023-02-28T13:30:54.285Z,50.83
2023-02-28T13:33:29.104Z,50.35
2023-02-28T13:36:32.920Z,49.60
2023-02-28T13:39:21.438Z,49.91
2023-02-28T13:41:49.041Z,49.91
2023-02-28T13:44:27.786Z,49.85
2023-02-28T13:46:56.808Z,50.29
2023-02-28T13:49:24.293Z,49.85
2023-02-28T13:52:16.136Z,50.31
2023-02-28T13:55:19.321Z,49.12
2023-02-28T13:58:40.381Z,49.92
2023-02-28T14:01:08.009Z,52.39
2023-02-28T14:03:44.369Z,51.89
2023-02-28T14:06:37.770Z,51.51
2023-02-28T14:09:24.788Z,51.52
2023-02-28T14:11:53.073Z,51.76
2023-02-28T14:14:46.651Z,51.94
2023-02-28T14:17:17.150Z,51.72
2023-02-28T14:19:51.011Z,51.78
2023-02-28T14:22:33.715Z,52.62
2023-02-28T14:25:16.186Z,53.47
2023-02-28T14:27:49.165Z,52.37
2023-02-28T14:30:38.359Z,51.65
2023-02-28T14:33:27.683Z,53.94
2023-02-28T14:36:07.174Z,53.89
2023-02-28T14:38:44.299Z,54.24
2023-02-28T14:41:39.918Z,55.54
2023-02-28T14:44:28.395Z,55.78
2023-02-28T14:47:07.778Z,56.36
2023-02-28T14:49:47.703Z,59.48
2023-02-28T14:52:44.672Z,58.31
2023-02-28T14:55:18.017Z,57.36
2023-02-28T14:57:57.213Z,58.79
2023-02-28T15:00:24.808Z,58.71
2023-02-28T15:02:53.830Z,59.51
2023-02-28T15:05:39.496Z,61.55
2023-02-28T15:08:14.905Z,62.13
2023-02-28T15:10:51.812Z,60.26
2023-02-28T15:13:20.362Z,59.40
2023-02-28T15:16:03.766Z,59.48
2023-02-28T15:18:34.521Z,59.33
2023-02-28T15:21:09.491Z,59.64
2023-02-28T15:23:38.933Z,59.43
2023-02-28T15:26:07.250Z,60.53
2023-02-28T15:28:34.653Z,62.58
2023-02-28T15:31:04.766Z,64.11
2023-02-28T15:33:34.473Z,62.16
2023-02-28T15:36:08.464Z,63.00
2023-02-28T15:38:37.198Z,63.09
2023-02-28T15:41:09.165Z,64.53
2023-02-28T15:43:39.235Z,64.65
2023-02-28T15:46:12.363Z,63.74
2023-02-28T15:48:56.848Z,65.01
2023-02-28T15:51:39.366Z,64.89
2023-02-28T15:54:09.629Z,65.19
2023-02-28T15:56:44.774Z,64.00
2023-02-28T15:59:22.416Z,63.94
2023-02-28T16:02:13.058Z,65.48
2023-02-28T16:05:16.708Z,67.66
2023-02-28T16:07:45.208Z,68.78
2023-02-28T16:10:17.256Z,66.41
2023-02-28T16:12:45.516Z,66.37
2023-02-28T16:15:21.161Z,65.40
2023-02-28T16:17:49.440Z,64.85
2023-02-28T16:20:28.920Z,65.33
2023-02-28T16:22:57.456Z,66.04
2023-02-28T16:25:34.299Z,67.71
2023-02-28T16:28:02.398Z,68.39
2023-02-28T16:30:33.605Z,67.18
2023-02-28T16:33:01.373Z,65.94
2023-02-28T16:35:28.644Z,67.34
2023-02-28T16:37:56.629Z,67.03
2023-02-28T16:40:26.745Z,67.58
2023-02-28T16:42:59.858Z,68.34
2023-02-28T16:45:29.607Z,70.27
2023-02-28T16:47:57.672Z,69.86
2023-02-28T16:50:27.991Z,68.44
2023-02-28T16:52:56.202Z,69.50
2023-02-28T16:55:24.935Z,67.97
2023-02-28T16:57:56.327Z,67.36
2023-02-28T17:00:24.720Z,67.83
2023-02-28T17:02:52.857Z,70.34
2023-02-28T17:05:20.955Z,68.24
2023-02-28T17:07:49.220Z,67.54
2023-02-28T17:10:24.917Z,68.46
2023-02-28T17:12:55.020Z,69.97
2023-02-28T17:15:23.852Z,68.56
2023-02-28T17:17:51.658Z,68.16
2023-02-28T17:20:24.915Z,68.84
2023-02-28T17:22:53.780Z,69.80
2023-02-28T17:25:22.115Z,69.50
2023-02-28T17:27:52.341Z,70.50
2023-02-28T17:30:24.284Z,68.23
2023-02-28T17:32:52.026Z,68.78
2023-02-28T17:35:19.380Z,68.55
2023-02-28T17:37:46.972Z,69.27
2023-02-28T17:40:19.988Z,69.95
2023-02-28T17:42:47.723Z,69.98
2023-02-28T17:45:16.065Z,69.55
2023-02-28T17:47:46.759Z,68.47
2023-02-28T17:50:21.968Z,68.68
2023-02-28T17:52:51.430Z,67.65
2023-02-28T17:55:20.238Z,68.54
2023-02-28T17:57:47.834Z,70.22
2023-02-28T18:00:18.403Z,68.06
2023-02-28T18:02:46.281Z,68.45
2023-02-28T18:05:13.628Z,68.00
2023-02-28T18:07:41.779Z,67.41
2023-02-28T18:10:20.574Z,68.01
2023-02-28T18:12:50.815Z,66.81
2023-02-28T18:15:21.183Z,68.01
2023-02-28T18:17:49.768Z,69.04
2023-02-28T18:20:17.738Z,70.19
2023-02-28T18:22:45.406Z,70.51
2023-02-28T18:25:16.967Z,69.37
2023-02-28T18:27:54.478Z,69.54
2023-02-28T18:30:22.619Z,69.12
2023-02-28T18:32:50.220Z,70.02
2023-02-28T18:35:36.129Z,69.67
2023-02-28T18:38:15.155Z,70.23
2023-02-28T18:40:43.689Z,69.71
2023-02-28T18:43:11.258Z,69.76
2023-02-28T18:45:39.562Z,70.13
2023-02-28T18:48:07.253Z,71.54
2023-02-28T18:50:37.145Z,69.07
2023-02-28T18:53:04.902Z,71.00
2023-02-28T18:55:32.909Z,72.27
2023-02-28T18:58:00.684Z,74.04
2023-02-28T19:00:28.028Z,73.87
2023-02-28T19:02:55.662Z,74.53
2023-02-28T19:05:23.937Z,75.21
2023-02-28T19:07:51.487Z,75.34
2023-02-28T19:10:19.036Z,75.74
2023-02-28T19:12:47.176Z,76.51
2023-02-28T19:15:14.548Z,76.84
2023-02-28T19:17:42.302Z,75.81
2023-02-28T19:20:10.569Z,75.75
2023-02-28T19:22:38.910Z,75.02
2023-02-28T19:25:07.542Z,75.35
2023-02-28T19:27:35.335Z,76.39
2023-02-28T19:30:04.375Z,76.93
2023-02-28T19:32:32.234Z,77.11
2023-02-28T19:34:59.614Z,77.15
2023-02-28T19:37:27.236Z,77.39
2023-02-28T19:39:57.027Z,76.63
2023-02-28T19:42:24.950Z,75.78
2023-02-28T19:44:52.304Z,75.38
2023-02-28T19:47:19.831Z,75.88
2023-02-28T19:49:47.095Z,77.18
2023-02-28T19:52:15.603Z,79.15
2023-02-28T19:54:43.032Z,78.51
2023-02-28T19:57:10.993Z,78.89
2023-02-28T19:59:39.952Z,79.97
2023-02-28T20:02:15.848Z,79.69
2023-02-28T20:04:43.324Z,79.48
2023-02-28T20:07:11.334Z,80.95
2023-02-28T20:09:38.621Z,81.13
2023-02-28T20:12:09.227Z,81.17
2023-02-28T20:14:42.398Z,81.09
2023-02-28T20:17:10.196Z,81.26
2023-02-28T20:19:38.096Z,80.71
2023-02-28T20:22:06.127Z,81.36
2023-02-28T20:24:33.546Z,83.81
2023-02-28T20:27:01.120Z,82.16
2023-02-28T20:29:28.422Z,80.38
2023-02-28T20:31:57.675Z,81.51
2023-02-28T20:34:25.357Z,80.37
2023-02-28T20:36:53.225Z,80.89
2023-02-28T20:39:20.454Z,80.08
2023-02-28T20:41:48.065Z,82.21
2023-02-28T20:44:15.425Z,80.63
2023-02-28T20:46:43.878Z,81.84
2023-02-28T20:49:11.497Z,83.17
2023-02-28T20:51:40.250Z,83.66
2023-02-28T20:54:11.256Z,82.19
2023-02-28T20:56:38.945Z,82.60
2023-02-28T20:59:06.380Z,82.91
2023-02-28T21:01:34.275Z,82.83
2023-02-28T21:04:06.166Z,82.84
2023-02-28T21:06:37.213Z,83.78
2023-02-28T21:09:09.487Z,84.06
2023-02-28T21:11:39.286Z,84.66
2023-02-28T21:14:12.783Z,84.94
2023-02-28T21:16:40.980Z,83.82
2023-02-28T21:19:09.123Z,82.94
2023-02-28T21:21:43.982Z,83.09
2023-02-28T21:24:12.426Z,83.08
2023-02-28T21:26:42.065Z,83.32
2023-02-28T21:29:09.349Z,82.79
2023-02-28T21:31:37.516Z,82.90
2023-02-28T21:34:08.288Z,84.09
2023-02-28T21:36:41.508Z,84.18
2023-02-28T21:39:13.200Z,83.61
2023-02-28T21:41:41.710Z,83.86
2023-02-28T21:44:18.210Z,84.33
2023-02-28T21:46:52.567Z,86.97
2023-02-28T21:49:20.014Z,85.79
2023-02-28T21:51:47.594Z,86.34
2023-02-28T21:54:14.864Z,86.51
2023-02-28T21:56:42.699Z,87.53
2023-02-28T21:59:10.557Z,89.04
2023-02-28T22:01:40.586Z,88.31
2023-02-28T22:04:10.390Z,88.86
2023-02-28T22:06:41.261Z,88.96
2023-02-28T22:09:10.457Z,91.12
2023-02-28T22:11:38.783Z,90.36
2023-02-28T22:14:09.318Z,90.08
2023-02-28T22:16:50.737Z,90.57
2023-02-28T22:19:21.153Z,90.56
2023-02-28T22:21:48.741Z,91.53
2023-02-28T22:24:18.112Z,90.61
2023-02-28T22:26:45.548Z,91.10
2023-02-28T22:29:13.086Z,92.61
2023-02-28T22:31:40.440Z,92.23
2023-02-28T22:34:10.944Z,94.65
2023-02-28T22:36:40.041Z,96.14
2023-02-28T22:39:07.781Z,97.78
2023-02-28T22:41:35.121Z,96.34
2023-02-28T22:44:04.293Z,98.29
2023-02-28T22:46:34.064Z,96.61
2023-02-28T22:49:06.867Z,97.93
2023-02-28T22:51:35.024Z,98.18
2023-02-28T22:54:02.550Z,97.88
2023-02-28T22:56:30.923Z,98.33
2023-02-28T22:59:00.757Z,97.46
2023-02-28T23:01:31.339Z,97.54
2023-02-28T23:03:59.958Z,98.63
2023-02-28T23:06:33.089Z,97.52
2023-02-28T23:09:04.659Z,98.76
2023-02-28T23:11:39.932Z,98.63
2023-02-28T23:14:08.048Z,100.00
2023-02-28T23:16:50.588Z,100.00
2023-02-28T23:19:22.032Z,100.00
2023-02-28T23:21:49.490Z,100.00
2023-02-28T23:24:19.839Z,100.00
2023-02-28T23:26:49.248Z,100.00
2023-02-28T23:29:18.394Z,100.00
2023-02-28T23:31:45.826Z,100.00
2023-02-28T23:34:14.951Z,100.00
2023-02-28T23:36:46.123Z,100.00
2023-02-28T23:39:17.393Z,100.00
2023-02-28T23:41:46.002Z,100.00
2023-02-28T23:44:19.881Z,100.00
2023-02-28T23:46:51.070Z,99.71
2023-02-28T23:49:22.359Z,100.00
2023-02-28T23:51:51.992Z,100.00
2023-02-28T23:54:20.105Z,100.00
2023-02-28T23:56:47.370Z,100.00
2023-02-28T23:59:14.992Z,100.00
